sensor_id;sensor_type;location;lat;lon;timestamp;pressure;altitude;pressure_sealevel;temperature;humidity
34328;BME280;20588;48.840;10.064;2022-11-04T00:01:33;95503.91;;;11.01;nan
34328;BME280;20588;48.840;10.064;2022-11-04T00:04:02;95510.28;;;10.98;nan
34328;BME280;20588;48.840;10.064;2022-11-04T00:06:28;95517.94;;;10.93;nan
34328;BME280;20588;48.840;10.064;2022-11-04T00:08:56;95513.81;;;10.92;nan
34328;BME280;20588;48.840;10.064;2022-11-04T00:11:22;95521.78;;;10.91;nan
34328;BME280;20588;48.840;10.064;2022-11-04T00:14:08;95526.13;;;10.90;nan
34328;BME280;20588;48.840;10.064;2022-11-04T00:16:35;95528.41;;;10.87;nan
34328;BME280;20588;48.840;10.064;2022-11-04T00:19:20;95518.88;;;10.87;nan
34328;BME280;20588;48.840;10.064;2022-11-04T00:21:46;95530.44;;;10.85;nan
34328;BME280;20588;48.840;10.064;2022-11-04T00:24:31;95526.31;;;10.84;nan
34328;BME280;20588;48.840;10.064;2022-11-04T00:27:18;95515.16;;;10.78;nan
34328;BME280;20588;48.840;10.064;2022-11-04T00:30:05;95504.56;;;10.75;nan
34328;BME280;20588;48.840;10.064;2022-11-04T00:32:33;95496.53;;;10.71;nan
34328;BME280;20588;48.840;10.064;2022-11-04T00:35:18;95502.94;;;10.69;nan
34328;BME280;20588;48.840;10.064;2022-11-04T00:37:46;95502.84;;;10.64;nan
34328;BME280;20588;48.840;10.064;2022-11-04T00:40:13;95507.22;;;10.63;nan
34328;BME280;20588;48.840;10.064;2022-11-04T00:42:42;95509.25;;;10.61;nan
34328;BME280;20588;48.840;10.064;2022-11-04T00:45:09;95511.03;;;10.61;nan
34328;BME280;20588;48.840;10.064;2022-11-04T00:47:35;95507.38;;;10.57;nan
34328;BME280;20588;48.840;10.064;2022-11-04T00:50:01;95503.22;;;10.56;nan
34328;BME280;20588;48.840;10.064;2022-11-04T00:52:27;95508.63;;;10.54;nan
34328;BME280;20588;48.840;10.064;2022-11-04T00:54:53;95509.88;;;10.52;nan
34328;BME280;20588;48.840;10.064;2022-11-04T00:57:19;95517.59;;;10.52;nan
34328;BME280;20588;48.840;10.064;2022-11-04T00:59:45;95522.72;;;10.52;nan
34328;BME280;20588;48.840;10.064;2022-11-04T01:02:12;95537.59;;;10.50;nan
34328;BME280;20588;48.840;10.064;2022-11-04T01:04:38;95536.84;;;10.49;nan
34328;BME280;20588;48.840;10.064;2022-11-04T01:07:04;95538.63;;;10.49;nan
34328;BME280;20588;48.840;10.064;2022-11-04T01:09:30;95547.38;;;10.48;nan
34328;BME280;20588;48.840;10.064;2022-11-04T01:11:57;95550.19;;;10.46;nan
34328;BME280;20588;48.840;10.064;2022-11-04T01:14:23;95547.84;;;10.45;nan
34328;BME280;20588;48.840;10.064;2022-11-04T01:16:49;95548.81;;;10.44;nan
34328;BME280;20588;48.840;10.064;2022-11-04T01:19:16;95542.13;;;10.43;nan
34328;BME280;20588;48.840;10.064;2022-11-04T01:21:42;95550.88;;;10.42;nan
34328;BME280;20588;48.840;10.064;2022-11-04T01:24:08;95551.88;;;10.41;nan
34328;BME280;20588;48.840;10.064;2022-11-04T01:26:34;95549.28;;;10.41;nan
34328;BME280;20588;48.840;10.064;2022-11-04T01:29:01;95553.97;;;10.44;nan
34328;BME280;20588;48.840;10.064;2022-11-04T01:31:29;95564.25;;;10.44;nan
34328;BME280;20588;48.840;10.064;2022-11-04T01:33:57;95561.69;;;10.44;nan
34328;BME280;20588;48.840;10.064;2022-11-04T01:36:24;95564.25;;;10.44;nan
34328;BME280;20588;48.840;10.064;2022-11-04T01:38:50;95558.88;;;10.45;nan
34328;BME280;20588;48.840;10.064;2022-11-04T01:41:31;95565.84;;;10.45;nan
34328;BME280;20588;48.840;10.064;2022-11-04T01:44:00;95571.50;;;10.47;nan
34328;BME280;20588;48.840;10.064;2022-11-04T01:49:26;95572.06;;;10.49;nan
34328;BME280;20588;48.840;10.064;2022-11-04T01:52:00;95578.75;;;10.50;nan
34328;BME280;20588;48.840;10.064;2022-11-04T01:54:27;95567.94;;;10.48;nan
34328;BME280;20588;48.840;10.064;2022-11-04T01:56:55;95564.59;;;10.47;nan
34328;BME280;20588;48.840;10.064;2022-11-04T01:59:25;95551.50;;;10.49;nan
34328;BME280;20588;48.840;10.064;2022-11-04T02:01:53;95547.91;;;10.50;nan
34328;BME280;20588;48.840;10.064;2022-11-04T02:04:20;95548.13;;;10.48;nan
34328;BME280;20588;48.840;10.064;2022-11-04T02:07:07;95547.13;;;10.49;nan
34328;BME280;20588;48.840;10.064;2022-11-04T02:09:35;95539.41;;;10.49;nan
34328;BME280;20588;48.840;10.064;2022-11-04T02:12:02;95540.41;;;10.48;nan
34328;BME280;20588;48.840;10.064;2022-11-04T02:14:48;95538.63;;;10.49;nan
34328;BME280;20588;48.840;10.064;2022-11-04T02:17:21;95533.25;;;10.50;nan
34328;BME280;20588;48.840;10.064;2022-11-04T02:42:26;95544.47;;;10.44;nan
34328;BME280;20588;48.840;10.064;2022-11-04T02:44:58;95544.72;;;10.43;nan
34328;BME280;20588;48.840;10.064;2022-11-04T02:47:30;95551.41;;;10.44;nan
34328;BME280;20588;48.840;10.064;2022-11-04T02:53:07;95552.19;;;10.44;nan
34328;BME280;20588;48.840;10.064;2022-11-04T02:55:42;95564.25;;;10.44;nan
34328;BME280;20588;48.840;10.064;2022-11-04T02:58:14;95555.09;;;10.48;nan
34328;BME280;20588;48.840;10.064;2022-11-04T03:00:42;95556.88;;;10.47;nan
34328;BME280;20588;48.840;10.064;2022-11-04T03:03:14;95551.97;;;10.46;nan
34328;BME280;20588;48.840;10.064;2022-11-04T03:05:46;95556.31;;;10.45;nan
34328;BME280;20588;48.840;10.064;2022-11-04T03:08:21;95556.31;;;10.45;nan
34328;BME280;20588;48.840;10.064;2022-11-04T03:10:57;95560.38;;;10.41;nan
34328;BME280;20588;48.840;10.064;2022-11-04T03:13:25;95559.28;;;10.37;nan
34328;BME280;20588;48.840;10.064;2022-11-04T03:15:57;95560.03;;;10.38;nan
34328;BME280;20588;48.840;10.064;2022-11-04T03:18:42;95564.44;;;10.37;nan
34328;BME280;20588;48.840;10.064;2022-11-04T03:21:11;95566.44;;;10.35;nan
34328;BME280;20588;48.840;10.064;2022-11-04T03:23:38;95568.69;;;10.32;nan
34328;BME280;20588;48.840;10.064;2022-11-04T03:32:23;95567.50;;;10.23;nan
34328;BME280;20588;48.840;10.064;2022-11-04T03:34:42;95565.16;;;10.21;nan
34328;BME280;20588;48.840;10.064;2022-11-04T03:37:09;95566.19;;;10.20;nan
34328;BME280;20588;48.840;10.064;2022-11-04T03:39:35;95566.88;;;10.16;nan
34328;BME280;20588;48.840;10.064;2022-11-04T03:42:08;95563.75;;;10.14;nan
34328;BME280;20588;48.840;10.064;2022-11-04T03:44:55;95559.63;;;10.13;nan
34328;BME280;20588;48.840;10.064;2022-11-04T03:47:23;95566.53;;;10.12;nan
34328;BME280;20588;48.840;10.064;2022-11-04T03:49:56;95569.00;;;10.07;nan
34328;BME280;20588;48.840;10.064;2022-11-04T03:52:24;95572.56;;;10.06;nan
34328;BME280;20588;48.840;10.064;2022-11-04T03:54:50;95565.88;;;10.05;nan
34328;BME280;20588;48.840;10.064;2022-11-04T03:57:47;95571.72;;;10.01;nan
34328;BME280;20588;48.840;10.064;2022-11-04T04:00:20;95576.06;;;10.00;nan
34328;BME280;20588;48.840;10.064;2022-11-04T04:05:50;95593.94;;;9.95;nan
34328;BME280;20588;48.840;10.064;2022-11-04T04:08:32;95604.69;;;9.92;nan
34328;BME280;20588;48.840;10.064;2022-11-04T04:16:20;95618.88;;;9.83;nan
34328;BME280;20588;48.840;10.064;2022-11-04T04:21:20;95606.28;;;9.82;nan
34328;BME280;20588;48.840;10.064;2022-11-04T04:23:49;95607.53;;;9.79;nan
34328;BME280;20588;48.840;10.064;2022-11-04T04:26:37;95593.13;;;9.78;nan
34328;BME280;20588;48.840;10.064;2022-11-04T04:29:24;95590.56;;;9.78;nan
34328;BME280;20588;48.840;10.064;2022-11-04T04:31:53;95570.00;;;9.78;nan
34328;BME280;20588;48.840;10.064;2022-11-04T04:34:30;95572.69;;;9.72;nan
34328;BME280;20588;48.840;10.064;2022-11-04T04:39:47;95617.38;;;9.59;nan
34328;BME280;20588;48.840;10.064;2022-11-04T04:42:34;95615.81;;;9.58;nan
34328;BME280;20588;48.840;10.064;2022-11-04T04:45:22;95609.13;;;9.57;nan
34328;BME280;20588;48.840;10.064;2022-11-04T04:47:50;95592.81;;;9.52;nan
34328;BME280;20588;48.840;10.064;2022-11-04T04:50:19;95598.97;;;9.51;nan
34328;BME280;20588;48.840;10.064;2022-11-04T04:52:48;95595.28;;;9.47;nan
34328;BME280;20588;48.840;10.064;2022-11-04T04:55:15;95603.13;;;9.40;nan
34328;BME280;20588;48.840;10.064;2022-11-04T04:57:41;95609.16;;;9.34;nan
34328;BME280;20588;48.840;10.064;2022-11-04T05:00:13;95607.91;;;9.37;nan
34328;BME280;20588;48.840;10.064;2022-11-04T05:02:40;95601.69;;;9.33;nan
34328;BME280;20588;48.840;10.064;2022-11-04T05:05:06;95590.41;;;9.34;nan
34328;BME280;20588;48.840;10.064;2022-11-04T05:07:32;95600.88;;;9.32;nan
34328;BME280;20588;48.840;10.064;2022-11-04T05:09:59;95620.63;;;9.32;nan
34328;BME280;20588;48.840;10.064;2022-11-04T05:12:25;95620.09;;;9.30;nan
34328;BME280;20588;48.840;10.064;2022-11-04T05:14:51;95603.69;;;9.31;nan
34328;BME280;20588;48.840;10.064;2022-11-04T05:17:17;95587.41;;;9.25;nan
34328;BME280;20588;48.840;10.064;2022-11-04T05:19:43;95585.59;;;9.26;nan
34328;BME280;20588;48.840;10.064;2022-11-04T05:22:09;95583.47;;;9.23;nan
34328;BME280;20588;48.840;10.064;2022-11-04T05:24:35;95591.16;;;9.23;nan
34328;BME280;20588;48.840;10.064;2022-11-04T05:27:01;95585.16;;;9.17;nan
34328;BME280;20588;48.840;10.064;2022-11-04T05:29:27;95571.66;;;9.10;nan
34328;BME280;20588;48.840;10.064;2022-11-04T05:31:53;95552.13;;;9.09;nan
34328;BME280;20588;48.840;10.064;2022-11-04T05:34:19;95544.13;;;9.05;nan
34328;BME280;20588;48.840;10.064;2022-11-04T05:36:45;95541.00;;;9.03;nan
34328;BME280;20588;48.840;10.064;2022-11-04T05:39:12;95554.25;;;9.00;nan
34328;BME280;20588;48.840;10.064;2022-11-04T05:41:38;95581.47;;;9.01;nan
34328;BME280;20588;48.840;10.064;2022-11-04T05:44:04;95582.72;;;8.99;nan
34328;BME280;20588;48.840;10.064;2022-11-04T05:46:31;95581.38;;;8.96;nan
34328;BME280;20588;48.840;10.064;2022-11-04T05:48:57;95560.06;;;8.96;nan
34328;BME280;20588;48.840;10.064;2022-11-04T05:51:26;95563.41;;;8.96;nan
34328;BME280;20588;48.840;10.064;2022-11-04T05:53:53;95575.22;;;8.97;nan
34328;BME280;20588;48.840;10.064;2022-11-04T05:56:19;95588.63;;;8.99;nan
34328;BME280;20588;48.840;10.064;2022-11-04T05:58:45;95601.47;;;8.99;nan
34328;BME280;20588;48.840;10.064;2022-11-04T06:01:22;95601.56;;;9.04;nan
34328;BME280;20588;48.840;10.064;2022-11-04T06:03:49;95607.03;;;9.08;nan
34328;BME280;20588;48.840;10.064;2022-11-04T06:06:16;95605.13;;;9.03;nan
34328;BME280;20588;48.840;10.064;2022-11-04T06:08:42;95602.78;;;9.02;nan
34328;BME280;20588;48.840;10.064;2022-11-04T06:11:08;95611.50;;;9.01;nan
34328;BME280;20588;48.840;10.064;2022-11-04T06:13:34;95613.28;;;9.00;nan
34328;BME280;20588;48.840;10.064;2022-11-04T06:16:00;95616.28;;;8.97;nan
34328;BME280;20588;48.840;10.064;2022-11-04T06:18:26;95616.50;;;8.96;nan
34328;BME280;20588;48.840;10.064;2022-11-04T06:23:38;95623.84;;;8.92;nan
34328;BME280;20588;48.840;10.064;2022-11-04T06:26:04;95622.97;;;8.87;nan
34328;BME280;20588;48.840;10.064;2022-11-04T06:28:30;95617.72;;;8.82;nan
34328;BME280;20588;48.840;10.064;2022-11-04T06:30:58;95612.44;;;8.77;nan
34328;BME280;20588;48.840;10.064;2022-11-04T06:33:24;95612.13;;;8.73;nan
34328;BME280;20588;48.840;10.064;2022-11-04T06:35:50;95625.16;;;8.72;nan
34328;BME280;20588;48.840;10.064;2022-11-04T06:38:16;95628.41;;;8.67;nan
34328;BME280;20588;48.840;10.064;2022-11-04T06:40:42;95630.81;;;8.62;nan
34328;BME280;20588;48.840;10.064;2022-11-04T06:43:08;95644.88;;;8.60;nan
34328;BME280;20588;48.840;10.064;2022-11-04T06:45:34;95639.63;;;8.55;nan
34328;BME280;20588;48.840;10.064;2022-11-04T06:48:00;95629.44;;;8.48;nan
34328;BME280;20588;48.840;10.064;2022-11-04T06:50:26;95624.31;;;8.48;nan
34328;BME280;20588;48.840;10.064;2022-11-04T06:52:53;95613.75;;;8.45;nan
34328;BME280;20588;48.840;10.064;2022-11-04T06:55:19;95615.28;;;8.46;nan
34328;BME280;20588;48.840;10.064;2022-11-04T06:57:45;95603.25;;;8.46;nan
34328;BME280;20588;48.840;10.064;2022-11-04T07:00:11;95604.38;;;8.50;nan
34328;BME280;20588;48.840;10.064;2022-11-04T07:02:37;95600.25;;;8.49;nan
34328;BME280;20588;48.840;10.064;2022-11-04T07:05:04;95594.13;;;8.50;nan
34328;BME280;20588;48.840;10.064;2022-11-04T07:07:30;95589.22;;;8.49;nan
34328;BME280;20588;48.840;10.064;2022-11-04T07:09:56;95572.81;;;8.50;nan
34328;BME280;20588;48.840;10.064;2022-11-04T07:12:22;95573.63;;;8.50;nan
34328;BME280;20588;48.840;10.064;2022-11-04T07:14:50;95576.97;;;8.51;nan
34328;BME280;20588;48.840;10.064;2022-11-04T07:17:16;95576.97;;;8.51;nan
34328;BME280;20588;48.840;10.064;2022-11-04T07:19:42;95584.09;;;8.49;nan
34328;BME280;20588;48.840;10.064;2022-11-04T07:22:08;95585.09;;;8.48;nan
34328;BME280;20588;48.840;10.064;2022-11-04T07:24:35;95578.84;;;8.44;nan
34328;BME280;20588;48.840;10.064;2022-11-04T07:27:01;95580.19;;;8.46;nan
34328;BME280;20588;48.840;10.064;2022-11-04T07:29:27;95585.53;;;8.45;nan
34328;BME280;20588;48.840;10.064;2022-11-04T07:31:53;95587.66;;;8.48;nan
34328;BME280;20588;48.840;10.064;2022-11-04T07:34:19;95596.47;;;8.52;nan
34328;BME280;20588;48.840;10.064;2022-11-04T07:36:45;95604.38;;;8.50;nan
34328;BME280;20588;48.840;10.064;2022-11-04T07:39:11;95610.41;;;8.56;nan
34328;BME280;20588;48.840;10.064;2022-11-04T07:41:37;95620.34;;;8.64;nan
34328;BME280;20588;48.840;10.064;2022-11-04T07:44:03;95611.88;;;8.63;nan
34328;BME280;20588;48.840;10.064;2022-11-04T07:46:31;95587.38;;;8.67;nan
34328;BME280;20588;48.840;10.064;2022-11-04T07:48:58;95595.72;;;8.74;nan
34328;BME280;20588;48.840;10.064;2022-11-04T07:51:25;95594.97;;;8.85;nan
34328;BME280;20588;48.840;10.064;2022-11-04T07:53:51;95600.44;;;9.00;nan
34328;BME280;20588;48.840;10.064;2022-11-04T07:56:17;95605.69;;;9.05;nan
34328;BME280;20588;48.840;10.064;2022-11-04T07:58:44;95607.47;;;9.16;nan
34328;BME280;20588;48.840;10.064;2022-11-04T08:01:16;95615.50;;;9.32;nan
34328;BME280;20588;48.840;10.064;2022-11-04T08:03:42;95617.97;;;9.38;nan
34328;BME280;20588;48.840;10.064;2022-11-04T08:06:10;95627.22;;;9.51;nan
34328;BME280;20588;48.840;10.064;2022-11-04T08:08:36;95625.31;;;9.46;nan
34328;BME280;20588;48.840;10.064;2022-11-04T08:11:06;95634.56;;;9.70;nan
34328;BME280;20588;48.840;10.064;2022-11-04T08:13:34;95625.63;;;9.73;nan
34328;BME280;20588;48.840;10.064;2022-11-04T08:16:12;95626.75;;;9.77;nan
34328;BME280;20588;48.840;10.064;2022-11-04T08:18:39;95630.31;;;9.76;nan
34328;BME280;20588;48.840;10.064;2022-11-04T08:21:05;95626.41;;;9.73;nan
34328;BME280;20588;48.840;10.064;2022-11-04T08:23:35;95638.34;;;9.79;nan
34328;BME280;20588;48.840;10.064;2022-11-04T08:26:05;95640.69;;;9.81;nan
34328;BME280;20588;48.840;10.064;2022-11-04T08:28:31;95637.22;;;9.87;nan
34328;BME280;20588;48.840;10.064;2022-11-04T08:33:25;95627.22;;;10.02;nan
34328;BME280;20588;48.840;10.064;2022-11-04T08:35:53;95625.66;;;10.12;nan
34328;BME280;20588;48.840;10.064;2022-11-04T08:38:19;95626.63;;;10.23;nan
34328;BME280;20588;48.840;10.064;2022-11-04T08:40:46;95625.94;;;10.27;nan
34328;BME280;20588;48.840;10.064;2022-11-04T08:43:12;95636.88;;;10.34;nan
34328;BME280;20588;48.840;10.064;2022-11-04T08:45:43;95633.63;;;10.39;nan
34328;BME280;20588;48.840;10.064;2022-11-04T08:48:10;95633.09;;;10.53;nan
34328;BME280;20588;48.840;10.064;2022-11-04T08:50:37;95624.59;;;10.53;nan
34328;BME280;20588;48.840;10.064;2022-11-04T08:53:04;95618.38;;;10.49;nan
34328;BME280;20588;48.840;10.064;2022-11-04T08:55:30;95620.78;;;10.39;nan
34328;BME280;20588;48.840;10.064;2022-11-04T08:57:57;95623.50;;;10.49;nan
34328;BME280;20588;48.840;10.064;2022-11-04T09:00:24;95624.69;;;10.58;nan
34328;BME280;20588;48.840;10.064;2022-11-04T09:02:50;95634.63;;;10.66;nan
34328;BME280;20588;48.840;10.064;2022-11-04T09:05:16;95634.16;;;10.69;nan
34328;BME280;20588;48.840;10.064;2022-11-04T09:07:42;95638.22;;;10.98;nan
34328;BME280;20588;48.840;10.064;2022-11-04T09:10:09;95642.22;;;11.06;nan
34328;BME280;20588;48.840;10.064;2022-11-04T09:12:36;95646.88;;;10.92;nan
34328;BME280;20588;48.840;10.064;2022-11-04T09:15:03;95648.97;;;10.95;nan
34328;BME280;20588;48.840;10.064;2022-11-04T09:17:30;95649.06;;;11.17;nan
34328;BME280;20588;48.840;10.064;2022-11-04T09:19:56;95650.09;;;11.16;nan
34328;BME280;20588;48.840;10.064;2022-11-04T09:22:22;95657.50;;;11.12;nan
34328;BME280;20588;48.840;10.064;2022-11-04T09:24:49;95658.19;;;11.24;nan
34328;BME280;20588;48.840;10.064;2022-11-04T09:27:15;95651.63;;;11.33;nan
34328;BME280;20588;48.840;10.064;2022-11-04T09:29:41;95645.25;;;11.36;nan
34328;BME280;20588;48.840;10.064;2022-11-04T09:32:07;95646.16;;;11.46;nan
34328;BME280;20588;48.840;10.064;2022-11-04T09:34:33;95641.69;;;11.58;nan
34328;BME280;20588;48.840;10.064;2022-11-04T09:36:59;95626.63;;;11.50;nan
34328;BME280;20588;48.840;10.064;2022-11-04T09:39:26;95644.91;;;11.49;nan
34328;BME280;20588;48.840;10.064;2022-11-04T09:44:56;95628.16;;;11.84;nan
34328;BME280;20588;48.840;10.064;2022-11-04T09:47:26;95622.31;;;11.94;nan
34328;BME280;20588;48.840;10.064;2022-11-04T09:49:54;95626.50;;;12.00;nan
34328;BME280;20588;48.840;10.064;2022-11-04T09:52:35;95619.25;;;12.18;nan
34328;BME280;20588;48.840;10.064;2022-11-04T09:55:03;95611.91;;;12.32;nan
34328;BME280;20588;48.840;10.064;2022-11-04T09:57:32;95604.56;;;12.45;nan
34328;BME280;20588;48.840;10.064;2022-11-04T09:59:59;95606.47;;;12.55;nan
34328;BME280;20588;48.840;10.064;2022-11-04T10:18:33;95597.81;;;13.34;nan
34328;BME280;20588;48.840;10.064;2022-11-04T10:21:45;95597.84;;;13.39;nan
34328;BME280;20588;48.840;10.064;2022-11-04T10:24:19;95597.06;;;13.39;nan
34328;BME280;20588;48.840;10.064;2022-11-04T10:26:59;95590.88;;;13.40;nan
34328;BME280;20588;48.840;10.064;2022-11-04T10:32:02;95600.22;;;13.46;nan
34328;BME280;20588;48.840;10.064;2022-11-04T10:37:01;95592.66;;;13.34;nan
34328;BME280;20588;48.840;10.064;2022-11-04T10:39:33;95596.25;;;13.28;nan
34328;BME280;20588;48.840;10.064;2022-11-04T10:42:01;95599.09;;;13.32;nan
34328;BME280;20588;48.840;10.064;2022-11-04T10:44:33;95600.41;;;13.34;nan
34328;BME280;20588;48.840;10.064;2022-11-04T10:47:33;95598.63;;;13.40;nan
34328;BME280;20588;48.840;10.064;2022-11-04T10:52:36;95592.06;;;13.69;nan
34328;BME280;20588;48.840;10.064;2022-11-04T10:55:39;95587.00;;;13.42;nan
34328;BME280;20588;48.840;10.064;2022-11-04T10:57:57;95584.66;;;13.36;nan
34328;BME280;20588;48.840;10.064;2022-11-04T11:00:40;95576.97;;;13.51;nan
34328;BME280;20588;48.840;10.064;2022-11-04T11:05:55;95571.81;;;13.56;nan
34328;BME280;20588;48.840;10.064;2022-11-04T11:08:34;95568.53;;;13.70;nan
34328;BME280;20588;48.840;10.064;2022-11-04T11:11:05;95566.25;;;13.84;nan
34328;BME280;20588;48.840;10.064;2022-11-04T11:13:37;95564.50;;;13.99;nan
34328;BME280;20588;48.840;10.064;2022-11-04T11:18:34;95550.63;;;14.40;nan
34328;BME280;20588;48.840;10.064;2022-11-04T11:23:46;95536.94;;;14.90;nan
34328;BME280;20588;48.840;10.064;2022-11-04T11:26:29;95530.66;;;15.21;nan
34328;BME280;20588;48.840;10.064;2022-11-04T11:28:57;95536.63;;;15.42;nan
34328;BME280;20588;48.840;10.064;2022-11-04T11:31:37;95538.84;;;15.68;nan
34328;BME280;20588;48.840;10.064;2022-11-04T11:34:13;95544.50;;;15.80;nan
34328;BME280;20588;48.840;10.064;2022-11-04T11:36:39;95547.03;;;15.90;nan
34328;BME280;20588;48.840;10.064;2022-11-04T11:39:16;95532.25;;;15.91;nan
34328;BME280;20588;48.840;10.064;2022-11-04T11:41:57;95529.41;;;15.87;nan
34328;BME280;20588;48.840;10.064;2022-11-04T11:44:33;95530.97;;;15.88;nan
34328;BME280;20588;48.840;10.064;2022-11-04T11:47:21;95525.00;;;15.88;nan
34328;BME280;20588;48.840;10.064;2022-11-04T11:52:32;95527.84;;;15.91;nan
34328;BME280;20588;48.840;10.064;2022-11-04T12:00:19;95540.03;;;15.91;nan
34328;BME280;20588;48.840;10.064;2022-11-04T12:03:28;95546.34;;;15.75;nan
34328;BME280;20588;48.840;10.064;2022-11-04T12:09:11;95542.78;;;15.56;nan
34328;BME280;20588;48.840;10.064;2022-11-04T12:11:59;95535.25;;;15.54;nan
34328;BME280;20588;48.840;10.064;2022-11-04T12:14:46;95549.03;;;15.50;nan
34328;BME280;20588;48.840;10.064;2022-11-04T12:17:38;95548.53;;;15.48;nan
34328;BME280;20588;48.840;10.064;2022-11-04T12:29:06;95575.53;;;14.87;nan
34328;BME280;20588;48.840;10.064;2022-11-04T12:31:30;95587.19;;;14.69;nan
34328;BME280;20588;48.840;10.064;2022-11-04T12:34:18;95591.78;;;14.42;nan
34328;BME280;20588;48.840;10.064;2022-11-04T12:46:12;95581.66;;;14.25;nan
34328;BME280;20588;48.840;10.064;2022-11-04T12:51:08;95577.81;;;14.48;nan
34328;BME280;20588;48.840;10.064;2022-11-04T12:56:25;95577.34;;;14.71;nan
34328;BME280;20588;48.840;10.064;2022-11-04T13:02:00;95578.66;;;14.89;nan
34328;BME280;20588;48.840;10.064;2022-11-04T13:04:46;95573.22;;;14.90;nan
34328;BME280;20588;48.840;10.064;2022-11-04T13:07:28;95576.03;;;14.99;nan
34328;BME280;20588;48.840;10.064;2022-11-04T13:10:04;95572.16;;;14.96;nan
34328;BME280;20588;48.840;10.064;2022-11-04T13:12:35;95569.56;;;14.96;nan
34328;BME280;20588;48.840;10.064;2022-11-04T13:15:14;95570.59;;;15.00;nan
34328;BME280;20588;48.840;10.064;2022-11-04T13:17:43;95566.22;;;14.86;nan
34328;BME280;20588;48.840;10.064;2022-11-04T13:22:44;95571.66;;;14.69;nan
34328;BME280;20588;48.840;10.064;2022-11-04T13:25:42;95568.53;;;14.62;nan
34328;BME280;20588;48.840;10.064;2022-11-04T13:28:17;95570.34;;;14.57;nan
34328;BME280;20588;48.840;10.064;2022-11-04T13:31:11;95572.41;;;14.44;nan
34328;BME280;20588;48.840;10.064;2022-11-04T13:33:51;95571.09;;;14.37;nan
34328;BME280;20588;48.840;10.064;2022-11-04T13:36:35;95579.88;;;14.36;nan
34328;BME280;20588;48.840;10.064;2022-11-04T13:44:39;95587.84;;;14.19;nan
34328;BME280;20588;48.840;10.064;2022-11-04T13:47:16;95589.09;;;14.12;nan
34328;BME280;20588;48.840;10.064;2022-11-04T13:49:48;95595.03;;;14.07;nan
34328;BME280;20588;48.840;10.064;2022-11-04T13:52:15;95599.44;;;14.02;nan
34328;BME280;20588;48.840;10.064;2022-11-04T13:54:52;95588.81;;;13.98;nan
34328;BME280;20588;48.840;10.064;2022-11-04T13:57:22;95595.53;;;13.94;nan
34328;BME280;20588;48.840;10.064;2022-11-04T14:18:47;95606.47;;;13.55;nan
34328;BME280;20588;48.840;10.064;2022-11-04T14:21:21;95606.41;;;13.50;nan
34328;BME280;20588;48.840;10.064;2022-11-04T14:23:54;95609.00;;;13.45;nan
34328;BME280;20588;48.840;10.064;2022-11-04T14:27:00;95616.16;;;13.33;nan
34328;BME280;20588;48.840;10.064;2022-11-04T14:29:26;95618.41;;;13.24;nan
34328;BME280;20588;48.840;10.064;2022-11-04T14:31:55;95619.66;;;13.17;nan
34328;BME280;20588;48.840;10.064;2022-11-04T14:34:32;95619.09;;;13.10;nan
34328;BME280;20588;48.840;10.064;2022-11-04T14:37:03;95626.97;;;12.98;nan
34328;BME280;20588;48.840;10.064;2022-11-04T14:39:38;95629.22;;;12.90;nan
34328;BME280;20588;48.840;10.064;2022-11-04T14:42:05;95630.41;;;12.77;nan
34328;BME280;20588;48.840;10.064;2022-11-04T14:47:28;95631.72;;;12.53;nan
34328;BME280;20588;48.840;10.064;2022-11-04T14:52:29;95634.81;;;12.28;nan
34328;BME280;20588;48.840;10.064;2022-11-04T14:55:02;95638.34;;;12.17;nan
34328;BME280;20588;48.840;10.064;2022-11-04T14:57:34;95639.00;;;12.08;nan
34328;BME280;20588;48.840;10.064;2022-11-04T15:00:33;95637.31;;;11.97;nan
34328;BME280;20588;48.840;10.064;2022-11-04T15:05:37;95644.56;;;11.78;nan
34328;BME280;20588;48.840;10.064;2022-11-04T15:08:35;95639.81;;;11.70;nan
34328;BME280;20588;48.840;10.064;2022-11-04T15:11:28;95644.78;;;11.60;nan
34328;BME280;20588;48.840;10.064;2022-11-04T15:14:21;95646.53;;;11.55;nan
34328;BME280;20588;48.840;10.064;2022-11-04T15:16:53;95646.22;;;11.51;nan
34328;BME280;20588;48.840;10.064;2022-11-04T15:19:31;95648.50;;;11.48;nan
34328;BME280;20588;48.840;10.064;2022-11-04T15:22:03;95648.41;;;11.43;nan
34328;BME280;20588;48.840;10.064;2022-11-04T15:24:29;95637.75;;;11.34;nan
34328;BME280;20588;48.840;10.064;2022-11-04T15:27:02;95639.44;;;11.29;nan
34328;BME280;20588;48.840;10.064;2022-11-04T15:29:28;95644.22;;;11.20;nan
34328;BME280;20588;48.840;10.064;2022-11-04T15:31:57;95641.28;;;11.12;nan
34328;BME280;20588;48.840;10.064;2022-11-04T15:34:25;95640.34;;;11.01;nan
34328;BME280;20588;48.840;10.064;2022-11-04T15:36:55;95645.06;;;10.92;nan
34328;BME280;20588;48.840;10.064;2022-11-04T15:39:40;95649.19;;;10.77;nan
34328;BME280;20588;48.840;10.064;2022-11-04T15:42:13;95651.13;;;10.70;nan
34328;BME280;20588;48.840;10.064;2022-11-04T15:45:00;95646.59;;;10.60;nan
34328;BME280;20588;48.840;10.064;2022-11-04T15:47:42;95644.88;;;10.49;nan
34328;BME280;20588;48.840;10.064;2022-11-04T15:50:34;95652.63;;;10.38;nan
34328;BME280;20588;48.840;10.064;2022-11-04T15:53:00;95667.88;;;10.28;nan
34328;BME280;20588;48.840;10.064;2022-11-04T15:55:27;95663.31;;;10.18;nan
34328;BME280;20588;48.840;10.064;2022-11-04T15:57:56;95667.81;;;10.11;nan
34328;BME280;20588;48.840;10.064;2022-11-04T16:00:24;95666.81;;;10.01;nan
34328;BME280;20588;48.840;10.064;2022-11-04T16:02:55;95671.25;;;9.94;nan
34328;BME280;20588;48.840;10.064;2022-11-04T16:05:33;95664.91;;;9.85;nan
34328;BME280;20588;48.840;10.064;2022-11-04T16:08:25;95673.97;;;9.76;nan
34328;BME280;20588;48.840;10.064;2022-11-04T16:11:15;95674.34;;;9.68;nan
34328;BME280;20588;48.840;10.064;2022-11-04T16:13:43;95680.59;;;9.60;nan
34328;BME280;20588;48.840;10.064;2022-11-04T16:16:20;95688.41;;;9.54;nan
34328;BME280;20588;48.840;10.064;2022-11-04T16:18:52;95690.28;;;9.47;nan